sensor_id;sensor_type;location;lat;lon;timestamp;temperature;humidity
22071;DHT22;11200;51.488;6.668;2023-08-12T00:01:17;21.80;99.90
22071;DHT22;11200;51.488;6.668;2023-08-12T00:03:46;21.80;99.90
22071;DHT22;11200;51.488;6.668;2023-08-12T00:06:12;21.80;99.90
22071;DHT22;11200;51.488;6.668;2023-08-12T00:08:38;21.80;99.90
22071;DHT22;11200;51.488;6.668;2023-08-12T00:11:04;21.70;99.90
22071;DHT22;11200;51.488;6.668;2023-08-12T00:13:29;21.70;99.90
22071;DHT22;11200;51.488;6.668;2023-08-12T00:15:55;21.70;99.90
22071;DHT22;11200;51.488;6.668;2023-08-12T00:18:22;21.70;99.90
22071;DHT22;11200;51.488;6.668;2023-08-12T00:20:48;21.70;99.90
22071;DHT22;11200;51.488;6.668;2023-08-12T00:23:13;21.70;99.90
22071;DHT22;11200;51.488;6.668;2023-08-12T00:25:39;21.70;99.90
22071;DHT22;11200;51.488;6.668;2023-08-12T00:28:05;21.60;99.90
22071;DHT22;11200;51.488;6.668;2023-08-12T00:30:30;21.60;99.90
22071;DHT22;11200;51.488;6.668;2023-08-12T00:32:56;21.60;99.90
22071;DHT22;11200;51.488;6.668;2023-08-12T00:35:22;21.60;99.90
22071;DHT22;11200;51.488;6.668;2023-08-12T00:37:47;21.60;99.90
22071;DHT22;11200;51.488;6.668;2023-08-12T00:40:13;21.60;99.90
22071;DHT22;11200;51.488;6.668;2023-08-12T00:45:10;21.50;99.90
22071;DHT22;11200;51.488;6.668;2023-08-12T00:47:36;21.50;99.90
22071;DHT22;11200;51.488;6.668;2023-08-12T00:50:02;21.50;99.90
22071;DHT22;11200;51.488;6.668;2023-08-12T00:52:28;21.50;99.90
22071;DHT22;11200;51.488;6.668;2023-08-12T00:54:54;21.50;99.90
22071;DHT22;11200;51.488;6.668;2023-08-12T00:57:20;21.50;99.90
22071;DHT22;11200;51.488;6.668;2023-08-12T00:59:45;21.50;99.90
22071;DHT22;11200;51.488;6.668;2023-08-12T01:02:12;21.50;99.90
22071;DHT22;11200;51.488;6.668;2023-08-12T01:04:38;21.40;99.90
22071;DHT22;11200;51.488;6.668;2023-08-12T01:07:04;21.40;99.90
22071;DHT22;11200;51.488;6.668;2023-08-12T01:09:30;21.40;99.90
22071;DHT22;11200;51.488;6.668;2023-08-12T01:12:06;21.40;99.90
22071;DHT22;11200;51.488;6.668;2023-08-12T01:14:56;21.40;99.90
22071;DHT22;11200;51.488;6.668;2023-08-12T01:17:25;21.40;99.90
22071;DHT22;11200;51.488;6.668;2023-08-12T01:19:51;21.40;99.90
22071;DHT22;11200;51.488;6.668;2023-08-12T01:22:20;21.30;99.90
22071;DHT22;11200;51.488;6.668;2023-08-12T01:24:47;21.30;99.90
22071;DHT22;11200;51.488;6.668;2023-08-12T01:27:13;21.30;99.90
22071;DHT22;11200;51.488;6.668;2023-08-12T01:29:48;21.30;99.90
22071;DHT22;11200;51.488;6.668;2023-08-12T01:32:30;21.30;99.90
22071;DHT22;11200;51.488;6.668;2023-08-12T01:35:05;21.30;99.90
22071;DHT22;11200;51.488;6.668;2023-08-12T01:37:32;21.30;99.90
22071;DHT22;11200;51.488;6.668;2023-08-12T01:40:01;21.30;99.90
22071;DHT22;11200;51.488;6.668;2023-08-12T01:42:32;21.20;99.90
22071;DHT22;11200;51.488;6.668;2023-08-12T01:44:58;21.20;99.90
22071;DHT22;11200;51.488;6.668;2023-08-12T01:47:24;21.20;99.90
22071;DHT22;11200;51.488;6.668;2023-08-12T01:49:50;21.20;99.90
22071;DHT22;11200;51.488;6.668;2023-08-12T01:52:16;21.20;99.90
22071;DHT22;11200;51.488;6.668;2023-08-12T01:54:41;21.20;99.90
22071;DHT22;11200;51.488;6.668;2023-08-12T01:57:07;21.20;99.90
22071;DHT22;11200;51.488;6.668;2023-08-12T01:59:37;21.20;99.90
22071;DHT22;11200;51.488;6.668;2023-08-12T02:02:03;21.20;99.90
22071;DHT22;11200;51.488;6.668;2023-08-12T02:04:29;21.10;99.90
22071;DHT22;11200;51.488;6.668;2023-08-12T02:06:55;21.10;99.90
22071;DHT22;11200;51.488;6.668;2023-08-12T02:09:22;21.10;99.90
22071;DHT22;11200;51.488;6.668;2023-08-12T02:11:48;21.10;99.90
22071;DHT22;11200;51.488;6.668;2023-08-12T02:14:14;21.10;99.90
22071;DHT22;11200;51.488;6.668;2023-08-12T02:16:40;21.10;99.90
22071;DHT22;11200;51.488;6.668;2023-08-12T02:19:06;21.10;99.90
22071;DHT22;11200;51.488;6.668;2023-08-12T02:21:32;21.10;99.90
22071;DHT22;11200;51.488;6.668;2023-08-12T02:23:57;21.10;99.90
22071;DHT22;11200;51.488;6.668;2023-08-12T02:26:23;21.10;99.90
22071;DHT22;11200;51.488;6.668;2023-08-12T02:28:49;21.10;99.90
22071;DHT22;11200;51.488;6.668;2023-08-12T02:31:15;21.00;99.90
22071;DHT22;11200;51.488;6.668;2023-08-12T02:33:41;21.00;99.90
22071;DHT22;11200;51.488;6.668;2023-08-12T02:36:07;21.10;99.90
22071;DHT22;11200;51.488;6.668;2023-08-12T02:38:32;21.00;99.90
22071;DHT22;11200;51.488;6.668;2023-08-12T02:40:58;21.00;99.90
22071;DHT22;11200;51.488;6.668;2023-08-12T02:43:24;21.00;99.90
22071;DHT22;11200;51.488;6.668;2023-08-12T02:45:49;21.00;99.90
22071;DHT22;11200;51.488;6.668;2023-08-12T02:48:15;21.00;99.90
22071;DHT22;11200;51.488;6.668;2023-08-12T02:50:40;21.00;99.90
22071;DHT22;11200;51.488;6.668;2023-08-12T02:53:07;21.00;99.90
22071;DHT22;11200;51.488;6.668;2023-08-12T02:55:32;21.00;99.90
22071;DHT22;11200;51.488;6.668;2023-08-12T02:57:58;21.00;99.90
22071;DHT22;11200;51.488;6.668;2023-08-12T03:00:24;21.00;99.90
22071;DHT22;11200;51.488;6.668;2023-08-12T03:02:50;21.00;99.90
22071;DHT22;11200;51.488;6.668;2023-08-12T03:05:15;21.00;99.90
22071;DHT22;11200;51.488;6.668;2023-08-12T03:07:41;21.00;99.90
22071;DHT22;11200;51.488;6.668;2023-08-12T03:10:07;20.90;99.90
22071;DHT22;11200;51.488;6.668;2023-08-12T03:12:33;21.00;99.90
22071;DHT22;11200;51.488;6.668;2023-08-12T03:15:00;21.00;99.90
22071;DHT22;11200;51.488;6.668;2023-08-12T03:17:26;20.90;99.90
22071;DHT22;11200;51.488;6.668;2023-08-12T03:19:51;20.90;99.90
22071;DHT22;11200;51.488;6.668;2023-08-12T03:22:19;20.90;99.90
22071;DHT22;11200;51.488;6.668;2023-08-12T03:24:45;20.90;99.90
22071;DHT22;11200;51.488;6.668;2023-08-12T03:27:11;20.90;99.90
22071;DHT22;11200;51.488;6.668;2023-08-12T03:29:38;20.90;99.90
22071;DHT22;11200;51.488;6.668;2023-08-12T03:32:03;20.90;99.90
22071;DHT22;11200;51.488;6.668;2023-08-12T03:34:29;20.90;99.90
22071;DHT22;11200;51.488;6.668;2023-08-12T03:36:55;20.90;99.90
22071;DHT22;11200;51.488;6.668;2023-08-12T03:39:20;20.90;99.90
22071;DHT22;11200;51.488;6.668;2023-08-12T03:41:46;20.90;99.90
22071;DHT22;11200;51.488;6.668;2023-08-12T03:44:12;20.90;99.90
22071;DHT22;11200;51.488;6.668;2023-08-12T03:46:37;20.90;99.90
22071;DHT22;11200;51.488;6.668;2023-08-12T03:49:03;20.90;99.90
22071;DHT22;11200;51.488;6.668;2023-08-12T03:51:29;20.80;99.90
22071;DHT22;11200;51.488;6.668;2023-08-12T03:53:54;20.90;99.90
22071;DHT22;11200;51.488;6.668;2023-08-12T03:56:20;20.90;99.90
22071;DHT22;11200;51.488;6.668;2023-08-12T03:58:45;20.90;99.90
22071;DHT22;11200;51.488;6.668;2023-08-12T04:01:11;20.90;99.90
22071;DHT22;11200;51.488;6.668;2023-08-12T04:03:36;20.80;99.90
22071;DHT22;11200;51.488;6.668;2023-08-12T04:06:02;20.80;99.90
22071;DHT22;11200;51.488;6.668;2023-08-12T04:08:28;20.80;99.90
22071;DHT22;11200;51.488;6.668;2023-08-12T04:10:54;20.80;99.90
22071;DHT22;11200;51.488;6.668;2023-08-12T04:13:20;20.80;99.90
22071;DHT22;11200;51.488;6.668;2023-08-12T04:15:50;20.80;99.90
22071;DHT22;11200;51.488;6.668;2023-08-12T04:18:16;20.80;99.90
22071;DHT22;11200;51.488;6.668;2023-08-12T04:20:41;20.80;99.90
22071;DHT22;11200;51.488;6.668;2023-08-12T04:23:07;20.80;99.90
22071;DHT22;11200;51.488;6.668;2023-08-12T04:25:33;20.80;99.90
22071;DHT22;11200;51.488;6.668;2023-08-12T04:27:58;20.80;99.90
22071;DHT22;11200;51.488;6.668;2023-08-12T04:30:24;20.80;99.90
22071;DHT22;11200;51.488;6.668;2023-08-12T04:32:50;20.80;99.90
22071;DHT22;11200;51.488;6.668;2023-08-12T04:35:15;20.80;99.90
22071;DHT22;11200;51.488;6.668;2023-08-12T04:37:41;20.80;99.90
22071;DHT22;11200;51.488;6.668;2023-08-12T04:40:07;20.80;99.90
22071;DHT22;11200;51.488;6.668;2023-08-12T04:42:33;20.80;99.90
22071;DHT22;11200;51.488;6.668;2023-08-12T04:44:59;20.80;99.90
22071;DHT22;11200;51.488;6.668;2023-08-12T04:47:25;20.80;99.90
22071;DHT22;11200;51.488;6.668;2023-08-12T04:49:51;20.70;99.90
22071;DHT22;11200;51.488;6.668;2023-08-12T04:52:17;20.80;99.90
22071;DHT22;11200;51.488;6.668;2023-08-12T04:54:43;20.80;99.90
22071;DHT22;11200;51.488;6.668;2023-08-12T04:57:08;20.80;99.90
22071;DHT22;11200;51.488;6.668;2023-08-12T04:59:34;20.80;99.90
22071;DHT22;11200;51.488;6.668;2023-08-12T05:02:00;20.80;99.90
22071;DHT22;11200;51.488;6.668;2023-08-12T05:04:25;20.80;99.90
22071;DHT22;11200;51.488;6.668;2023-08-12T05:06:51;20.60;99.90
22071;DHT22;11200;51.488;6.668;2023-08-12T05:09:17;20.80;99.90
22071;DHT22;11200;51.488;6.668;2023-08-12T05:11:42;20.80;99.90
22071;DHT22;11200;51.488;6.668;2023-08-12T05:14:08;20.80;99.90
22071;DHT22;11200;51.488;6.668;2023-08-12T05:16:34;20.80;99.90
22071;DHT22;11200;51.488;6.668;2023-08-12T05:19:00;20.80;99.90
22071;DHT22;11200;51.488;6.668;2023-08-12T05:21:26;20.80;99.90
22071;DHT22;11200;51.488;6.668;2023-08-12T05:23:52;20.80;99.90
22071;DHT22;11200;51.488;6.668;2023-08-12T05:26:17;20.80;99.90
22071;DHT22;11200;51.488;6.668;2023-08-12T05:28:43;20.80;99.90
22071;DHT22;11200;51.488;6.668;2023-08-12T05:31:09;20.80;99.90
22071;DHT22;11200;51.488;6.668;2023-08-12T05:33:34;20.80;99.90
22071;DHT22;11200;51.488;6.668;2023-08-12T05:36:00;20.80;99.90
22071;DHT22;11200;51.488;6.668;2023-08-12T05:38:26;20.80;99.90
22071;DHT22;11200;51.488;6.668;2023-08-12T05:40:51;20.80;99.90
22071;DHT22;11200;51.488;6.668;2023-08-12T05:43:17;20.80;99.90
22071;DHT22;11200;51.488;6.668;2023-08-12T05:45:43;20.80;99.90
22071;DHT22;11200;51.488;6.668;2023-08-12T05:48:08;20.80;99.90
22071;DHT22;11200;51.488;6.668;2023-08-12T05:50:34;20.80;99.90
22071;DHT22;11200;51.488;6.668;2023-08-12T05:53:00;20.80;99.90
22071;DHT22;11200;51.488;6.668;2023-08-12T05:55:25;20.80;99.90
22071;DHT22;11200;51.488;6.668;2023-08-12T05:57:51;20.80;99.90
22071;DHT22;11200;51.488;6.668;2023-08-12T06:00:16;20.80;99.90
22071;DHT22;11200;51.488;6.668;2023-08-12T06:02:42;20.80;99.90
22071;DHT22;11200;51.488;6.668;2023-08-12T06:05:08;20.80;99.90
22071;DHT22;11200;51.488;6.668;2023-08-12T06:07:34;20.80;99.90
22071;DHT22;11200;51.488;6.668;2023-08-12T06:10:00;20.80;99.90
22071;DHT22;11200;51.488;6.668;2023-08-12T06:12:26;20.80;99.90
22071;DHT22;11200;51.488;6.668;2023-08-12T06:14:52;20.80;99.90
22071;DHT22;11200;51.488;6.668;2023-08-12T06:17:17;20.80;99.90
22071;DHT22;11200;51.488;6.668;2023-08-12T06:19:43;20.80;99.90
22071;DHT22;11200;51.488;6.668;2023-08-12T06:22:09;20.80;99.90
22071;DHT22;11200;51.488;6.668;2023-08-12T06:24:35;20.80;99.90
22071;DHT22;11200;51.488;6.668;2023-08-12T06:27:00;20.80;99.90
22071;DHT22;11200;51.488;6.668;2023-08-12T06:29:26;20.80;99.90
22071;DHT22;11200;51.488;6.668;2023-08-12T06:31:52;20.80;99.90
22071;DHT22;11200;51.488;6.668;2023-08-12T06:34:18;20.80;99.90
22071;DHT22;11200;51.488;6.668;2023-08-12T06:36:44;21.10;99.90
22071;DHT22;11200;51.488;6.668;2023-08-12T06:39:10;20.80;99.90
22071;DHT22;11200;51.488;6.668;2023-08-12T06:41:35;20.80;99.90
22071;DHT22;11200;51.488;6.668;2023-08-12T06:44:01;20.80;99.90
22071;DHT22;11200;51.488;6.668;2023-08-12T06:46:28;20.80;99.90
22071;DHT22;11200;51.488;6.668;2023-08-12T06:48:56;20.80;99.90
22071;DHT22;11200;51.488;6.668;2023-08-12T06:51:21;20.80;99.90
22071;DHT22;11200;51.488;6.668;2023-08-12T06:53:47;20.80;99.90
22071;DHT22;11200;51.488;6.668;2023-08-12T06:56:13;20.80;99.90
22071;DHT22;11200;51.488;6.668;2023-08-12T06:58:38;20.80;99.90
22071;DHT22;11200;51.488;6.668;2023-08-12T07:01:04;20.80;99.90
22071;DHT22;11200;51.488;6.668;2023-08-12T07:03:30;20.80;99.90
22071;DHT22;11200;51.488;6.668;2023-08-12T07:05:58;20.80;99.90
22071;DHT22;11200;51.488;6.668;2023-08-12T07:08:25;20.80;99.90
22071;DHT22;11200;51.488;6.668;2023-08-12T07:10:53;20.70;99.90
22071;DHT22;11200;51.488;6.668;2023-08-12T07:13:18;20.80;99.90
22071;DHT22;11200;51.488;6.668;2023-08-12T07:15:45;20.80;99.90
22071;DHT22;11200;51.488;6.668;2023-08-12T07:18:12;20.80;99.90
22071;DHT22;11200;51.488;6.668;2023-08-12T07:20:38;20.80;99.90
22071;DHT22;11200;51.488;6.668;2023-08-12T07:23:05;20.80;99.90
22071;DHT22;11200;51.488;6.668;2023-08-12T07:25:31;20.80;99.90
22071;DHT22;11200;51.488;6.668;2023-08-12T07:27:57;20.80;99.90
22071;DHT22;11200;51.488;6.668;2023-08-12T07:30:23;20.80;99.90
22071;DHT22;11200;51.488;6.668;2023-08-12T07:32:48;20.80;99.90
22071;DHT22;11200;51.488;6.668;2023-08-12T07:35:14;20.80;99.90
22071;DHT22;11200;51.488;6.668;2023-08-12T07:37:40;20.80;99.90
22071;DHT22;11200;51.488;6.668;2023-08-12T07:40:06;20.90;99.90
22071;DHT22;11200;51.488;6.668;2023-08-12T07:42:33;20.90;99.90
22071;DHT22;11200;51.488;6.668;2023-08-12T07:44:58;20.80;99.90
22071;DHT22;11200;51.488;6.668;2023-08-12T07:47:24;20.80;99.90
22071;DHT22;11200;51.488;6.668;2023-08-12T07:49:49;20.80;99.90
22071;DHT22;11200;51.488;6.668;2023-08-12T07:52:15;20.80;99.90
22071;DHT22;11200;51.488;6.668;2023-08-12T07:54:41;20.80;99.90
22071;DHT22;11200;51.488;6.668;2023-08-12T07:57:07;20.80;99.90
22071;DHT22;11200;51.488;6.668;2023-08-12T07:59:33;20.90;99.90
22071;DHT22;11200;51.488;6.668;2023-08-12T08:01:59;20.80;99.90
22071;DHT22;11200;51.488;6.668;2023-08-12T08:07:00;20.90;99.90
22071;DHT22;11200;51.488;6.668;2023-08-12T08:09:26;20.90;99.90
22071;DHT22;11200;51.488;6.668;2023-08-12T08:11:51;20.90;99.90
22071;DHT22;11200;51.488;6.668;2023-08-12T08:14:17;20.90;99.90
22071;DHT22;11200;51.488;6.668;2023-08-12T08:16:43;20.90;99.90
22071;DHT22;11200;51.488;6.668;2023-08-12T08:19:09;20.90;99.90
22071;DHT22;11200;51.488;6.668;2023-08-12T08:21:37;20.90;99.90
22071;DHT22;11200;51.488;6.668;2023-08-12T08:24:03;20.90;99.90
22071;DHT22;11200;51.488;6.668;2023-08-12T08:26:28;21.00;99.90
22071;DHT22;11200;51.488;6.668;2023-08-12T08:28:54;21.00;99.90
22071;DHT22;11200;51.488;6.668;2023-08-12T08:31:20;21.00;99.90
22071;DHT22;11200;51.488;6.668;2023-08-12T08:33:45;21.00;99.90
22071;DHT22;11200;51.488;6.668;2023-08-12T08:36:11;21.00;99.90
22071;DHT22;11200;51.488;6.668;2023-08-12T08:38:36;21.00;99.90
22071;DHT22;11200;51.488;6.668;2023-08-12T08:41:05;21.00;99.90
22071;DHT22;11200;51.488;6.668;2023-08-12T08:43:32;21.00;99.90
22071;DHT22;11200;51.488;6.668;2023-08-12T08:45:59;21.10;99.90
22071;DHT22;11200;51.488;6.668;2023-08-12T08:48:25;21.10;99.90
22071;DHT22;11200;51.488;6.668;2023-08-12T08:50:51;21.10;99.90
22071;DHT22;11200;51.488;6.668;2023-08-12T08:53:18;21.10;99.90
22071;DHT22;11200;51.488;6.668;2023-08-12T08:55:45;21.10;99.90
22071;DHT22;11200;51.488;6.668;2023-08-12T08:58:12;21.10;99.90
22071;DHT22;11200;51.488;6.668;2023-08-12T09:00:38;21.20;99.90
22071;DHT22;11200;51.488;6.668;2023-08-12T09:03:05;21.20;99.90
22071;DHT22;11200;51.488;6.668;2023-08-12T09:05:32;21.20;99.90
22071;DHT22;11200;51.488;6.668;2023-08-12T09:08:01;21.20;99.90
22071;DHT22;11200;51.488;6.668;2023-08-12T09:10:27;21.20;99.90
22071;DHT22;11200;51.488;6.668;2023-08-12T09:12:56;21.30;99.90
22071;DHT22;11200;51.488;6.668;2023-08-12T09:15:22;21.30;99.90
22071;DHT22;11200;51.488;6.668;2023-08-12T09:17:48;21.30;99.90
22071;DHT22;11200;51.488;6.668;2023-08-12T09:20:13;21.10;99.90
22071;DHT22;11200;51.488;6.668;2023-08-12T09:22:43;21.30;99.90
22071;DHT22;11200;51.488;6.668;2023-08-12T09:25:09;21.30;99.90
22071;DHT22;11200;51.488;6.668;2023-08-12T09:27:38;21.30;99.90
22071;DHT22;11200;51.488;6.668;2023-08-12T09:30:05;21.30;99.90
22071;DHT22;11200;51.488;6.668;2023-08-12T09:32:30;21.30;99.90
22071;DHT22;11200;51.488;6.668;2023-08-12T09:34:56;21.30;99.90
22071;DHT22;11200;51.488;6.668;2023-08-12T09:37:23;21.30;99.90
22071;DHT22;11200;51.488;6.668;2023-08-12T09:39:52;21.30;99.90
22071;DHT22;11200;51.488;6.668;2023-08-12T09:42:18;21.30;99.90
22071;DHT22;11200;51.488;6.668;2023-08-12T09:44:45;21.30;99.90
22071;DHT22;11200;51.488;6.668;2023-08-12T09:47:10;21.30;99.90
22071;DHT22;11200;51.488;6.668;2023-08-12T09:49:37;21.30;99.90
22071;DHT22;11200;51.488;6.668;2023-08-12T09:52:04;21.30;99.90
22071;DHT22;11200;51.488;6.668;2023-08-12T09:54:34;21.30;99.90
22071;DHT22;11200;51.488;6.668;2023-08-12T09:57:04;21.30;99.90
22071;DHT22;11200;51.488;6.668;2023-08-12T09:59:33;21.30;99.90
22071;DHT22;11200;51.488;6.668;2023-08-12T10:02:00;21.30;99.90
22071;DHT22;11200;51.488;6.668;2023-08-12T10:04:35;21.20;99.90
22071;DHT22;11200;51.488;6.668;2023-08-12T10:07:02;21.30;99.90
22071;DHT22;11200;51.488;6.668;2023-08-12T10:09:30;21.30;99.90
22071;DHT22;11200;51.488;6.668;2023-08-12T10:11:56;21.30;99.90
22071;DHT22;11200;51.488;6.668;2023-08-12T10:14:24;21.30;99.90
22071;DHT22;11200;51.488;6.668;2023-08-12T10:16:50;21.30;99.90
22071;DHT22;11200;51.488;6.668;2023-08-12T10:19:17;21.30;99.90
22071;DHT22;11200;51.488;6.668;2023-08-12T10:21:48;21.40;99.90
22071;DHT22;11200;51.488;6.668;2023-08-12T10:24:16;21.40;99.90
22071;DHT22;11200;51.488;6.668;2023-08-12T10:26:42;21.40;99.90
22071;DHT22;11200;51.488;6.668;2023-08-12T10:29:09;21.40;99.90
22071;DHT22;11200;51.488;6.668;2023-08-12T10:31:34;21.40;99.90
22071;DHT22;11200;51.488;6.668;2023-08-12T10:34:03;21.40;99.90
22071;DHT22;11200;51.488;6.668;2023-08-12T10:36:29;21.50;99.90
22071;DHT22;11200;51.488;6.668;2023-08-12T10:38:56;21.50;99.90
22071;DHT22;11200;51.488;6.668;2023-08-12T10:41:25;21.50;99.90
22071;DHT22;11200;51.488;6.668;2023-08-12T10:43:54;21.50;99.90
22071;DHT22;11200;51.488;6.668;2023-08-12T10:46:28;21.50;99.90
22071;DHT22;11200;51.488;6.668;2023-08-12T10:49:06;21.60;99.90
22071;DHT22;11200;51.488;6.668;2023-08-12T10:51:45;21.60;99.90
22071;DHT22;11200;51.488;6.668;2023-08-12T10:54:17;21.60;99.90
22071;DHT22;11200;51.488;6.668;2023-08-12T11:04:43;21.70;99.90
22071;DHT22;11200;51.488;6.668;2023-08-12T11:07:32;21.70;99.90
22071;DHT22;11200;51.488;6.668;2023-08-12T11:09:59;21.80;99.90
22071;DHT22;11200;51.488;6.668;2023-08-12T11:12:34;21.80;99.90
22071;DHT22;11200;51.488;6.668;2023-08-12T11:15:03;21.80;99.90
22071;DHT22;11200;51.488;6.668;2023-08-12T11:17:37;21.90;99.90
22071;DHT22;11200;51.488;6.668;2023-08-12T11:20:09;21.90;99.90
22071;DHT22;11200;51.488;6.668;2023-08-12T11:22:43;21.90;99.90
22071;DHT22;11200;51.488;6.668;2023-08-12T11:25:13;21.80;99.90
22071;DHT22;11200;51.488;6.668;2023-08-12T11:27:44;21.80;99.90
22071;DHT22;11200;51.488;6.668;2023-08-12T11:30:15;21.80;99.90
22071;DHT22;11200;51.488;6.668;2023-08-12T11:32:42;21.80;99.90
22071;DHT22;11200;51.488;6.668;2023-08-12T11:35:09;21.80;99.90
22071;DHT22;11200;51.488;6.668;2023-08-12T11:37:37;21.80;99.90
22071;DHT22;11200;51.488;6.668;2023-08-12T11:40:04;21.80;99.90
22071;DHT22;11200;51.488;6.668;2023-08-12T11:42:30;21.80;99.90
22071;DHT22;11200;51.488;6.668;2023-08-12T11:44:56;21.80;99.90
22071;DHT22;11200;51.488;6.668;2023-08-12T11:47:22;21.80;99.90
22071;DHT22;11200;51.488;6.668;2023-08-12T11:49:48;21.80;99.90
22071;DHT22;11200;51.488;6.668;2023-08-12T11:52:14;21.80;99.90
22071;DHT22;11200;51.488;6.668;2023-08-12T11:54:40;21.80;99.90
22071;DHT22;11200;51.488;6.668;2023-08-12T11:57:05;21.80;99.90
22071;DHT22;11200;51.488;6.668;2023-08-12T11:59:31;21.80;99.90
22071;DHT22;11200;51.488;6.668;2023-08-12T12:01:57;21.80;99.90
22071;DHT22;11200;51.488;6.668;2023-08-12T12:04:24;21.80;99.90
22071;DHT22;11200;51.488;6.668;2023-08-12T12:06:49;21.90;99.90
22071;DHT22;11200;51.488;6.668;2023-08-12T12:09:15;21.90;99.90
22071;DHT22;11200;51.488;6.668;2023-08-12T12:11:44;21.90;99.90
22071;DHT22;11200;51.488;6.668;2023-08-12T12:14:10;22.00;99.90
22071;DHT22;11200;51.488;6.668;2023-08-12T12:16:44;22.00;99.90
22071;DHT22;11200;51.488;6.668;2023-08-12T12:19:21;22.00;99.90
22071;DHT22;11200;51.488;6.668;2023-08-12T12:21:49;22.00;99.90
22071;DHT22;11200;51.488;6.668;2023-08-12T12:24:15;22.10;99.90
22071;DHT22;11200;51.488;6.668;2023-08-12T12:26:41;22.10;99.90
22071;DHT22;11200;51.488;6.668;2023-08-12T12:29:07;22.20;99.90
22071;DHT22;11200;51.488;6.668;2023-08-12T12:31:35;22.20;99.90
22071;DHT22;11200;51.488;6.668;2023-08-12T12:34:04;22.30;99.90
22071;DHT22;11200;51.488;6.668;2023-08-12T12:36:50;22.30;99.90
22071;DHT22;11200;51.488;6.668;2023-08-12T12:39:16;22.30;99.90
22071;DHT22;11200;51.488;6.668;2023-08-12T12:41:42;22.30;99.90
22071;DHT22;11200;51.488;6.668;2023-08-12T12:44:10;22.40;99.90
22071;DHT22;11200;51.488;6.668;2023-08-12T12:46:36;22.40;99.90
22071;DHT22;11200;51.488;6.668;2023-08-12T12:49:02;22.40;99.90
22071;DHT22;11200;51.488;6.668;2023-08-12T12:51:28;22.40;99.90
22071;DHT22;11200;51.488;6.668;2023-08-12T12:53:56;22.40;99.90
22071;DHT22;11200;51.488;6.668;2023-08-12T12:56:22;22.40;99.90
22071;DHT22;11200;51.488;6.668;2023-08-12T12:58:48;22.50;99.90
22071;DHT22;11200;51.488;6.668;2023-08-12T13:01:13;22.50;99.90
22071;DHT22;11200;51.488;6.668;2023-08-12T13:03:43;22.50;99.90
22071;DHT22;11200;51.488;6.668;2023-08-12T13:06:09;22.50;99.90
22071;DHT22;11200;51.488;6.668;2023-08-12T13:08:34;22.50;99.90
22071;DHT22;11200;51.488;6.668;2023-08-12T13:11:00;22.50;99.90
22071;DHT22;11200;51.488;6.668;2023-08-12T13:13:26;22.50;99.90
22071;DHT22;11200;51.488;6.668;2023-08-12T13:15:52;22.50;99.90
22071;DHT22;11200;51.488;6.668;2023-08-12T13:18:17;22.50;99.90
22071;DHT22;11200;51.488;6.668;2023-08-12T13:20:43;22.50;99.90
22071;DHT22;11200;51.488;6.668;2023-08-12T13:23:09;22.50;99.90
22071;DHT22;11200;51.488;6.668;2023-08-12T13:25:34;22.50;99.90
22071;DHT22;11200;51.488;6.668;2023-08-12T13:28:01;22.50;99.90
22071;DHT22;11200;51.488;6.668;2023-08-12T13:30:28;22.50;99.90
22071;DHT22;11200;51.488;6.668;2023-08-12T13:32:54;22.50;99.90
22071;DHT22;11200;51.488;6.668;2023-08-12T13:35:20;22.40;99.90
22071;DHT22;11200;51.488;6.668;2023-08-12T13:37:46;22.40;99.90
22071;DHT22;11200;51.488;6.668;2023-08-12T13:40:12;22.40;99.90
22071;DHT22;11200;51.488;6.668;2023-08-12T13:42:38;22.40;99.90
22071;DHT22;11200;51.488;6.668;2023-08-12T13:45:04;22.40;99.90
22071;DHT22;11200;51.488;6.668;2023-08-12T13:47:30;22.50;99.90
22071;DHT22;11200;51.488;6.668;2023-08-12T13:49:56;22.40;99.90
22071;DHT22;11200;51.488;6.668;2023-08-12T13:52:22;22.50;99.90
22071;DHT22;11200;51.488;6.668;2023-08-12T13:54:50;22.50;99.90
22071;DHT22;11200;51.488;6.668;2023-08-12T13:57:16;22.50;99.90
22071;DHT22;11200;51.488;6.668;2023-08-12T13:59:41;22.60;99.90
22071;DHT22;11200;51.488;6.668;2023-08-12T14:02:16;22.60;99.90
22071;DHT22;11200;51.488;6.668;2023-08-12T14:04:44;22.70;99.90
22071;DHT22;11200;51.488;6.668;2023-08-12T14:07:10;22.80;99.90
22071;DHT22;11200;51.488;6.668;2023-08-12T14:09:38;22.90;99.90
22071;DHT22;11200;51.488;6.668;2023-08-12T14:12:04;22.90;99.90
22071;DHT22;11200;51.488;6.668;2023-08-12T14:14:30;23.00;99.90
22071;DHT22;11200;51.488;6.668;2023-08-12T14:16:56;23.00;99.90
22071;DHT22;11200;51.488;6.668;2023-08-12T14:19:21;23.00;99.90
22071;DHT22;11200;51.488;6.668;2023-08-12T14:21:52;23.00;99.90
22071;DHT22;11200;51.488;6.668;2023-08-12T14:24:18;23.10;99.90
22071;DHT22;11200;51.488;6.668;2023-08-12T14:26:55;23.20;99.90
22071;DHT22;11200;51.488;6.668;2023-08-12T14:31:56;23.20;99.90
22071;DHT22;11200;51.488;6.668;2023-08-12T14:34:22;23.30;99.90
22071;DHT22;11200;51.488;6.668;2023-08-12T14:36:47;23.30;99.90
22071;DHT22;11200;51.488;6.668;2023-08-12T14:39:13;23.40;99.90
22071;DHT22;11200;51.488;6.668;2023-08-12T14:41:39;23.40;99.90
22071;DHT22;11200;51.488;6.668;2023-08-12T14:44:04;23.40;99.90
22071;DHT22;11200;51.488;6.668;2023-08-12T14:46:30;23.50;99.90
22071;DHT22;11200;51.488;6.668;2023-08-12T14:48:55;23.50;99.90
22071;DHT22;11200;51.488;6.668;2023-08-12T14:51:22;23.50;99.90
22071;DHT22;11200;51.488;6.668;2023-08-12T14:53:48;23.60;99.90
22071;DHT22;11200;51.488;6.668;2023-08-12T14:56:14;23.60;99.90
22071;DHT22;11200;51.488;6.668;2023-08-12T14:58:40;23.60;99.90
22071;DHT22;11200;51.488;6.668;2023-08-12T15:01:06;23.60;99.90
22071;DHT22;11200;51.488;6.668;2023-08-12T15:03:32;23.60;99.90
22071;DHT22;11200;51.488;6.668;2023-08-12T15:06:02;23.60;99.90
22071;DHT22;11200;51.488;6.668;2023-08-12T15:08:29;23.60;99.90
22071;DHT22;11200;51.488;6.668;2023-08-12T15:10:55;23.60;99.90
22071;DHT22;11200;51.488;6.668;2023-08-12T15:13:21;23.60;99.90
22071;DHT22;11200;51.488;6.668;2023-08-12T15:15:46;23.60;99.90
22071;DHT22;11200;51.488;6.668;2023-08-12T15:18:12;23.50;99.90
22071;DHT22;11200;51.488;6.668;2023-08-12T15:20:38;23.50;99.90
22071;DHT22;11200;51.488;6.668;2023-08-12T15:23:04;23.50;99.90
22071;DHT22;11200;51.488;6.668;2023-08-12T15:25:29;23.50;99.90
22071;DHT22;11200;51.488;6.668;2023-08-12T15:27:55;23.50;99.90
22071;DHT22;11200;51.488;6.668;2023-08-12T15:30:21;23.40;99.90
22071;DHT22;11200;51.488;6.668;2023-08-12T15:32:46;23.40;99.90
22071;DHT22;11200;51.488;6.668;2023-08-12T15:35:12;23.40;99.90
22071;DHT22;11200;51.488;6.668;2023-08-12T15:37:38;23.30;99.90
22071;DHT22;11200;51.488;6.668;2023-08-12T15:40:05;23.30;99.90
22071;DHT22;11200;51.488;6.668;2023-08-12T15:42:31;23.30;99.90